Rechercher aéroport 
image banner adimage banner adimage banner ad
image banner ad

72CA - Quincy Helitack Base

Situé à Quincy, United States

ICAO - 72CA, IATA -

Données fournies par Airmate  

Information générale

Coordonnées: N39°58'24" W120°56'22"
Élévation : 3500 feet MSL.
Variation magnétique : 17° East
Voir autres Aéroports à California

Données opérationnelles

Special qualification required
Heure actuelle UTC:
Heure actuelle locale:
Météo à : KSVE - Susanville Muni ( 54 km )
METAR: KSVE 020615Z AUTO 34006KT 9SM CLR 21/02 A3023 RMK AO2
Voir NOTAMs / SUP AIP / TFR affectant cet aéroport [VIEW]
Fréquences de communication: [VIEW]

Pistes:

Coordonnées de l'aéroport

Adresse: Quincy United States

Vue satellite de 72CA